sensor_id;sensor_type;location;lat;lon;timestamp;P1;durP1;ratioP1;P2;durP2;ratioP2
35909;SDS011;22004;49.120;-0.200;2024-03-07T18:06:13;36.67;;;18.08;;
35909;SDS011;22004;49.120;-0.200;2024-03-07T18:09:37;39.38;;;20.75;;
35909;SDS011;22004;49.120;-0.200;2024-03-07T18:13:01;33.15;;;17.88;;
35909;SDS011;22004;49.120;-0.200;2024-03-07T18:16:26;36.78;;;19.48;;
35909;SDS011;22004;49.120;-0.200;2024-03-07T18:19:50;31.00;;;17.50;;
35909;SDS011;22004;49.120;-0.200;2024-03-07T18:23:14;34.47;;;17.38;;
35909;SDS011;22004;49.120;-0.200;2024-03-07T18:26:38;29.45;;;16.42;;
35909;SDS011;22004;49.120;-0.200;2024-03-07T18:30:02;34.70;;;17.63;;
35909;SDS011;22004;49.120;-0.200;2024-03-07T18:33:37;32.92;;;17.23;;
35909;SDS011;22004;49.120;-0.200;2024-03-07T18:37:02;31.13;;;15.93;;
35909;SDS011;22004;49.120;-0.200;2024-03-07T18:40:31;30.55;;;16.55;;
35909;SDS011;22004;49.120;-0.200;2024-03-07T18:43:56;33.33;;;15.60;;
35909;SDS011;22004;49.120;-0.200;2024-03-07T18:47:22;33.70;;;16.92;;
35909;SDS011;22004;49.120;-0.200;2024-03-07T18:50:48;30.20;;;16.25;;
35909;SDS011;22004;49.120;-0.200;2024-03-07T18:54:14;35.25;;;19.60;;
35909;SDS011;22004;49.120;-0.200;2024-03-07T18:58:05;31.50;;;16.65;;
35909;SDS011;22004;49.120;-0.200;2024-03-07T19:01:33;28.83;;;16.05;;
35909;SDS011;22004;49.120;-0.200;2024-03-07T19:04:56;31.65;;;17.10;;
35909;SDS011;22004;49.120;-0.200;2024-03-07T19:08:20;35.53;;;19.90;;
35909;SDS011;22004;49.120;-0.200;2024-03-07T19:11:47;34.85;;;18.35;;
35909;SDS011;22004;49.120;-0.200;2024-03-07T19:15:11;38.78;;;22.10;;
35909;SDS011;22004;49.120;-0.200;2024-03-07T19:18:34;31.52;;;17.75;;
35909;SDS011;22004;49.120;-0.200;2024-03-07T19:22:00;31.27;;;17.88;;
35909;SDS011;22004;49.120;-0.200;2024-03-07T19:25:24;34.35;;;19.05;;
35909;SDS011;22004;49.120;-0.200;2024-03-07T19:28:48;33.47;;;19.55;;
35909;SDS011;22004;49.120;-0.200;2024-03-07T19:32:13;40.55;;;22.20;;
35909;SDS011;22004;49.120;-0.200;2024-03-07T19:39:06;33.78;;;17.95;;
35909;SDS011;22004;49.120;-0.200;2024-03-07T19:42:31;42.78;;;20.15;;
35909;SDS011;22004;49.120;-0.200;2024-03-07T19:45:55;40.28;;;20.83;;
35909;SDS011;22004;49.120;-0.200;2024-03-07T19:49:19;31.38;;;17.70;;
35909;SDS011;22004;49.120;-0.200;2024-03-07T19:52:43;34.95;;;19.77;;
35909;SDS011;22004;49.120;-0.200;2024-03-07T19:56:07;29.05;;;16.88;;
35909;SDS011;22004;49.120;-0.200;2024-03-07T19:59:31;31.63;;;18.30;;
35909;SDS011;22004;49.120;-0.200;2024-03-07T20:02:58;38.10;;;23.03;;
35909;SDS011;22004;49.120;-0.200;2024-03-07T20:06:22;41.88;;;23.20;;
35909;SDS011;22004;49.120;-0.200;2024-03-07T20:09:46;30.05;;;17.10;;
35909;SDS011;22004;49.120;-0.200;2024-03-07T20:13:15;42.42;;;22.90;;
35909;SDS011;22004;49.120;-0.200;2024-03-07T20:16:41;30.20;;;17.85;;
35909;SDS011;22004;49.120;-0.200;2024-03-07T20:20:08;31.87;;;16.80;;
35909;SDS011;22004;49.120;-0.200;2024-03-07T20:23:34;30.65;;;15.82;;
35909;SDS011;22004;49.120;-0.200;2024-03-07T20:27:00;31.75;;;16.00;;
35909;SDS011;22004;49.120;-0.200;2024-03-07T20:30:24;30.52;;;16.80;;
35909;SDS011;22004;49.120;-0.200;2024-03-07T20:33:48;43.33;;;22.08;;
35909;SDS011;22004;49.120;-0.200;2024-03-07T20:37:12;31.98;;;17.90;;
35909;SDS011;22004;49.120;-0.200;2024-03-07T20:40:39;38.28;;;21.60;;
35909;SDS011;22004;49.120;-0.200;2024-03-07T20:44:03;33.83;;;18.77;;
35909;SDS011;22004;49.120;-0.200;2024-03-07T20:47:32;39.72;;;18.67;;
35909;SDS011;22004;49.120;-0.200;2024-03-07T20:50:56;40.63;;;19.55;;
35909;SDS011;22004;49.120;-0.200;2024-03-07T20:54:21;40.45;;;23.70;;
35909;SDS011;22004;49.120;-0.200;2024-03-07T20:57:45;54.08;;;32.55;;
35909;SDS011;22004;49.120;-0.200;2024-03-07T21:01:09;51.10;;;24.25;;
35909;SDS011;22004;49.120;-0.200;2024-03-07T21:04:33;64.95;;;33.80;;
35909;SDS011;22004;49.120;-0.200;2024-03-07T21:07:59;54.60;;;30.65;;
35909;SDS011;22004;49.120;-0.200;2024-03-07T21:11:23;63.58;;;34.38;;
35909;SDS011;22004;49.120;-0.200;2024-03-07T21:14:47;62.00;;;28.65;;
35909;SDS011;22004;49.120;-0.200;2024-03-07T21:18:12;53.10;;;29.35;;
35909;SDS011;22004;49.120;-0.200;2024-03-07T21:21:36;51.83;;;27.90;;
35909;SDS011;22004;49.120;-0.200;2024-03-07T21:25:00;65.20;;;28.48;;
35909;SDS011;22004;49.120;-0.200;2024-03-07T21:28:24;53.50;;;28.70;;
35909;SDS011;22004;49.120;-0.200;2024-03-07T21:31:48;56.78;;;29.73;;
35909;SDS011;22004;49.120;-0.200;2024-03-07T21:35:15;50.75;;;27.73;;
35909;SDS011;22004;49.120;-0.200;2024-03-07T21:38:40;53.80;;;26.92;;
35909;SDS011;22004;49.120;-0.200;2024-03-07T21:42:05;49.15;;;27.00;;
35909;SDS011;22004;49.120;-0.200;2024-03-07T21:45:31;51.88;;;27.98;;
35909;SDS011;22004;49.120;-0.200;2024-03-07T21:48:58;51.23;;;26.47;;
35909;SDS011;22004;49.120;-0.200;2024-03-07T21:52:23;46.22;;;25.38;;
35909;SDS011;22004;49.120;-0.200;2024-03-07T21:55:47;48.20;;;26.08;;
35909;SDS011;22004;49.120;-0.200;2024-03-07T21:59:12;48.85;;;26.10;;
35909;SDS011;22004;49.120;-0.200;2024-03-07T22:02:45;52.00;;;27.40;;
35909;SDS011;22004;49.120;-0.200;2024-03-07T22:06:09;46.80;;;25.55;;
35909;SDS011;22004;49.120;-0.200;2024-03-07T22:09:37;48.40;;;25.85;;
35909;SDS011;22004;49.120;-0.200;2024-03-07T22:13:00;48.15;;;26.63;;
35909;SDS011;22004;49.120;-0.200;2024-03-07T22:16:24;48.58;;;26.52;;
35909;SDS011;22004;49.120;-0.200;2024-03-07T22:19:48;55.10;;;29.98;;
35909;SDS011;22004;49.120;-0.200;2024-03-07T22:23:14;45.75;;;26.35;;
35909;SDS011;22004;49.120;-0.200;2024-03-07T22:26:39;45.75;;;25.02;;
35909;SDS011;22004;49.120;-0.200;2024-03-07T22:30:04;44.90;;;25.27;;
35909;SDS011;22004;49.120;-0.200;2024-03-07T22:33:28;54.08;;;27.40;;
35909;SDS011;22004;49.120;-0.200;2024-03-07T22:36:52;48.17;;;26.15;;
35909;SDS011;22004;49.120;-0.200;2024-03-07T22:40:16;48.83;;;25.35;;
35909;SDS011;22004;49.120;-0.200;2024-03-07T22:43:41;42.53;;;24.40;;
35909;SDS011;22004;49.120;-0.200;2024-03-07T22:47:07;44.75;;;24.58;;
35909;SDS011;22004;49.120;-0.200;2024-03-07T22:50:31;45.15;;;25.08;;
35909;SDS011;22004;49.120;-0.200;2024-03-07T22:53:55;44.70;;;25.35;;
35909;SDS011;22004;49.120;-0.200;2024-03-07T22:57:19;45.60;;;25.67;;
35909;SDS011;22004;49.120;-0.200;2024-03-07T23:00:42;42.08;;;23.85;;
35909;SDS011;22004;49.120;-0.200;2024-03-07T23:04:06;44.28;;;24.92;;
35909;SDS011;22004;49.120;-0.200;2024-03-07T23:07:33;44.97;;;24.10;;
35909;SDS011;22004;49.120;-0.200;2024-03-07T23:11:01;39.33;;;23.85;;
35909;SDS011;22004;49.120;-0.200;2024-03-07T23:14:25;43.25;;;24.55;;
35909;SDS011;22004;49.120;-0.200;2024-03-07T23:17:51;41.90;;;23.00;;
35909;SDS011;22004;49.120;-0.200;2024-03-07T23:21:15;43.08;;;24.83;;
35909;SDS011;22004;49.120;-0.200;2024-03-07T23:24:39;42.38;;;24.58;;
35909;SDS011;22004;49.120;-0.200;2024-03-07T23:28:04;40.97;;;23.13;;
35909;SDS011;22004;49.120;-0.200;2024-03-07T23:31:28;45.03;;;26.27;;
35909;SDS011;22004;49.120;-0.200;2024-03-07T23:34:53;43.58;;;24.00;;
35909;SDS011;22004;49.120;-0.200;2024-03-07T23:38:18;42.65;;;23.95;;
35909;SDS011;22004;49.120;-0.200;2024-03-07T23:41:51;38.70;;;22.85;;
35909;SDS011;22004;49.120;-0.200;2024-03-07T23:45:16;43.85;;;25.05;;
35909;SDS011;22004;49.120;-0.200;2024-03-07T23:48:40;49.38;;;29.48;;
35909;SDS011;22004;49.120;-0.200;2024-03-07T23:52:04;40.90;;;24.60;;
35909;SDS011;22004;49.120;-0.200;2024-03-07T23:55:31;48.53;;;27.83;;
35909;SDS011;22004;49.120;-0.200;2024-03-07T23:58:55;39.45;;;24.92;;
